KMKJ Airport (Mountain Empire) Information

FAA: MKJ - ICAO: KMKJ

KMKJ Airport Location

State Virginia
County Smyth
City Marion/Wytheville
KMKJ Airport is 9 miles northeast of Marion/Wytheville, VA.
Latitude 36-53-41.5000N
Longitude 081-20-59.8000W
Elevation 2,558ft

KMKJ Airport METARs

METAR KMKJ 060735Z AUTO 26008KT 1/4SM FG OVC002 18/17 A3013 RMK AO2 T01750172
Altimeter 30.13"
Temperature 17.5°C (63.5°F)
Wind 260° at 8KT
Clouds overcast at 200ft
Visibility 0.25mi
Time observed: 2022-07-06T07:35:00Z

KMKJ Airport Details

Status Operational
Activation September 1958
Ownership Public
Usage Public
Chart CINCINNATI
ATC on-site No
Beacon schedule sunset-sunrise
Beacon color clear green

KMKJ Airport Contacts

Owner SMYTH WYTHE ARPT CMSN
Owner address 8223 LEE HIGHWAY, RURAL RETREAT, VA 24368
Owner phone 276-783-8805
Manager THOMAS C. POMEROY
Manager address 12582 LUTHERAN CHURCH ROAD, LOVETTSVILLE, VA 20180
Manager phone (571) 919-7800

KMKJ Airport (Mountain Empire) Radio Frequencies

KMKJ (Airport) Radio Frequencies

UNICOM 122.7
Common traffic advisory frequency (CTAF) 122.7